sensor_id;sensor_type;location;lat;lon;timestamp;P1;durP1;ratioP1;P2;durP2;ratioP2
71769;SDS011;66386;52.122;5.420;2023-08-24T00:02:19;5.22;;;2.78;;
71769;SDS011;66386;52.122;5.420;2023-08-24T00:04:46;3.30;;;2.95;;
71769;SDS011;66386;52.122;5.420;2023-08-24T00:07:12;5.28;;;3.15;;
71769;SDS011;66386;52.122;5.420;2023-08-24T00:09:39;4.13;;;2.83;;
71769;SDS011;66386;52.122;5.420;2023-08-24T00:12:05;6.07;;;3.00;;
71769;SDS011;66386;52.122;5.420;2023-08-24T00:14:32;4.00;;;2.90;;
71769;SDS011;66386;52.122;5.420;2023-08-24T00:16:59;5.60;;;3.90;;
71769;SDS011;66386;52.122;5.420;2023-08-24T00:19:25;4.28;;;3.15;;
71769;SDS011;66386;52.122;5.420;2023-08-24T00:21:52;4.80;;;2.93;;
71769;SDS011;66386;52.122;5.420;2023-08-24T00:24:22;4.97;;;3.05;;
71769;SDS011;66386;52.122;5.420;2023-08-24T00:26:48;5.32;;;3.38;;
71769;SDS011;66386;52.122;5.420;2023-08-24T00:29:16;3.88;;;2.83;;
71769;SDS011;66386;52.122;5.420;2023-08-24T00:31:42;5.15;;;3.10;;
71769;SDS011;66386;52.122;5.420;2023-08-24T00:34:09;5.63;;;2.90;;
71769;SDS011;66386;52.122;5.420;2023-08-24T00:36:35;4.15;;;2.92;;
71769;SDS011;66386;52.122;5.420;2023-08-24T00:39:03;4.22;;;2.88;;
71769;SDS011;66386;52.122;5.420;2023-08-24T00:41:30;4.03;;;3.00;;
71769;SDS011;66386;52.122;5.420;2023-08-24T00:43:57;4.65;;;3.00;;
71769;SDS011;66386;52.122;5.420;2023-08-24T00:46:24;7.03;;;4.17;;
71769;SDS011;66386;52.122;5.420;2023-08-24T00:48:53;7.25;;;3.45;;
71769;SDS011;66386;52.122;5.420;2023-08-24T00:51:23;6.65;;;3.67;;
71769;SDS011;66386;52.122;5.420;2023-08-24T00:53:50;4.65;;;3.65;;
71769;SDS011;66386;52.122;5.420;2023-08-24T00:56:21;4.93;;;3.50;;
71769;SDS011;66386;52.122;5.420;2023-08-24T00:58:51;5.73;;;3.50;;
71769;SDS011;66386;52.122;5.420;2023-08-24T01:01:20;5.45;;;3.40;;
71769;SDS011;66386;52.122;5.420;2023-08-24T01:03:46;4.85;;;3.80;;
71769;SDS011;66386;52.122;5.420;2023-08-24T01:06:13;4.60;;;3.00;;
71769;SDS011;66386;52.122;5.420;2023-08-24T01:08:39;4.80;;;3.70;;
71769;SDS011;66386;52.122;5.420;2023-08-24T01:11:16;5.17;;;3.40;;
71769;SDS011;66386;52.122;5.420;2023-08-24T01:13:54;6.57;;;3.47;;
71769;SDS011;66386;52.122;5.420;2023-08-24T01:16:26;7.03;;;3.85;;
71769;SDS011;66386;52.122;5.420;2023-08-24T01:18:56;4.53;;;3.40;;
71769;SDS011;66386;52.122;5.420;2023-08-24T01:21:25;6.13;;;3.95;;
71769;SDS011;66386;52.122;5.420;2023-08-24T01:24:31;10.10;;;3.70;;
71769;SDS011;66386;52.122;5.420;2023-08-24T01:27:02;6.00;;;4.28;;
71769;SDS011;66386;52.122;5.420;2023-08-24T01:29:30;5.28;;;3.83;;
71769;SDS011;66386;52.122;5.420;2023-08-24T01:31:58;5.45;;;4.53;;
71769;SDS011;66386;52.122;5.420;2023-08-24T01:34:24;4.25;;;3.78;;
71769;SDS011;66386;52.122;5.420;2023-08-24T01:36:51;6.87;;;5.10;;
71769;SDS011;66386;52.122;5.420;2023-08-24T01:39:20;5.90;;;4.25;;
71769;SDS011;66386;52.122;5.420;2023-08-24T01:41:57;6.95;;;4.20;;
71769;SDS011;66386;52.122;5.420;2023-08-24T01:44:28;7.43;;;4.13;;
71769;SDS011;66386;52.122;5.420;2023-08-24T01:46:57;7.47;;;4.13;;
71769;SDS011;66386;52.122;5.420;2023-08-24T01:49:26;7.37;;;4.10;;
71769;SDS011;66386;52.122;5.420;2023-08-24T01:51:55;5.18;;;3.72;;
71769;SDS011;66386;52.122;5.420;2023-08-24T01:54:22;4.57;;;3.90;;
71769;SDS011;66386;52.122;5.420;2023-08-24T01:56:49;4.53;;;3.95;;
71769;SDS011;66386;52.122;5.420;2023-08-24T01:59:15;6.53;;;4.18;;
71769;SDS011;66386;52.122;5.420;2023-08-24T02:01:42;7.03;;;4.40;;
71769;SDS011;66386;52.122;5.420;2023-08-24T02:04:08;6.65;;;4.35;;
71769;SDS011;66386;52.122;5.420;2023-08-24T02:06:35;5.85;;;4.10;;
71769;SDS011;66386;52.122;5.420;2023-08-24T02:09:02;7.18;;;4.15;;
71769;SDS011;66386;52.122;5.420;2023-08-24T02:11:29;5.38;;;4.13;;
71769;SDS011;66386;52.122;5.420;2023-08-24T02:13:55;4.90;;;4.37;;
71769;SDS011;66386;52.122;5.420;2023-08-24T02:16:22;7.30;;;3.95;;
71769;SDS011;66386;52.122;5.420;2023-08-24T02:18:49;6.43;;;4.50;;
71769;SDS011;66386;52.122;5.420;2023-08-24T02:21:15;4.72;;;3.95;;
71769;SDS011;66386;52.122;5.420;2023-08-24T02:23:42;6.15;;;4.25;;
71769;SDS011;66386;52.122;5.420;2023-08-24T02:26:08;6.17;;;4.33;;
71769;SDS011;66386;52.122;5.420;2023-08-24T02:28:36;6.97;;;4.65;;
71769;SDS011;66386;52.122;5.420;2023-08-24T02:31:03;6.10;;;4.95;;
71769;SDS011;66386;52.122;5.420;2023-08-24T02:33:31;5.07;;;4.40;;
71769;SDS011;66386;52.122;5.420;2023-08-24T02:35:58;5.40;;;4.47;;
71769;SDS011;66386;52.122;5.420;2023-08-24T02:38:24;4.77;;;4.00;;
71769;SDS011;66386;52.122;5.420;2023-08-24T02:41:01;12.73;;;5.00;;
71769;SDS011;66386;52.122;5.420;2023-08-24T02:43:28;10.48;;;5.13;;
71769;SDS011;66386;52.122;5.420;2023-08-24T02:45:59;5.47;;;4.85;;
71769;SDS011;66386;52.122;5.420;2023-08-24T02:48:27;6.85;;;4.75;;
71769;SDS011;66386;52.122;5.420;2023-08-24T02:50:54;4.93;;;4.40;;
71769;SDS011;66386;52.122;5.420;2023-08-24T02:53:21;5.10;;;4.43;;
71769;SDS011;66386;52.122;5.420;2023-08-24T02:55:47;6.10;;;4.30;;
71769;SDS011;66386;52.122;5.420;2023-08-24T02:58:13;6.25;;;4.45;;
71769;SDS011;66386;52.122;5.420;2023-08-24T03:00:40;8.15;;;4.65;;
71769;SDS011;66386;52.122;5.420;2023-08-24T03:03:07;5.23;;;4.73;;
71769;SDS011;66386;52.122;5.420;2023-08-24T03:05:33;8.75;;;4.75;;
71769;SDS011;66386;52.122;5.420;2023-08-24T03:08:00;11.45;;;5.45;;
71769;SDS011;66386;52.122;5.420;2023-08-24T03:10:26;6.68;;;4.88;;
71769;SDS011;66386;52.122;5.420;2023-08-24T03:12:53;7.22;;;4.75;;
71769;SDS011;66386;52.122;5.420;2023-08-24T03:15:19;6.80;;;5.57;;
71769;SDS011;66386;52.122;5.420;2023-08-24T03:17:47;8.07;;;5.50;;
71769;SDS011;66386;52.122;5.420;2023-08-24T03:20:14;9.05;;;5.63;;
71769;SDS011;66386;52.122;5.420;2023-08-24T03:22:41;10.07;;;6.15;;
71769;SDS011;66386;52.122;5.420;2023-08-24T03:25:07;8.05;;;5.57;;
71769;SDS011;66386;52.122;5.420;2023-08-24T03:27:34;9.73;;;5.20;;
71769;SDS011;66386;52.122;5.420;2023-08-24T03:30:00;7.78;;;5.75;;
71769;SDS011;66386;52.122;5.420;2023-08-24T03:32:30;7.47;;;5.30;;
71769;SDS011;66386;52.122;5.420;2023-08-24T03:35:00;9.20;;;6.30;;
71769;SDS011;66386;52.122;5.420;2023-08-24T03:37:26;7.22;;;5.60;;
71769;SDS011;66386;52.122;5.420;2023-08-24T03:39:53;9.17;;;5.90;;
71769;SDS011;66386;52.122;5.420;2023-08-24T03:42:19;7.25;;;5.40;;
71769;SDS011;66386;52.122;5.420;2023-08-24T03:44:46;7.03;;;6.15;;
71769;SDS011;66386;52.122;5.420;2023-08-24T03:47:12;9.88;;;5.95;;
71769;SDS011;66386;52.122;5.420;2023-08-24T03:49:41;7.55;;;6.07;;
71769;SDS011;66386;52.122;5.420;2023-08-24T03:52:08;8.07;;;5.87;;
71769;SDS011;66386;52.122;5.420;2023-08-24T03:54:35;15.45;;;6.15;;
71769;SDS011;66386;52.122;5.420;2023-08-24T03:57:02;9.55;;;5.60;;
71769;SDS011;66386;52.122;5.420;2023-08-24T03:59:28;8.80;;;6.43;;
71769;SDS011;66386;52.122;5.420;2023-08-24T04:01:55;9.65;;;6.38;;
71769;SDS011;66386;52.122;5.420;2023-08-24T04:04:22;9.53;;;5.93;;
71769;SDS011;66386;52.122;5.420;2023-08-24T04:06:48;9.45;;;6.40;;
71769;SDS011;66386;52.122;5.420;2023-08-24T04:09:15;10.43;;;6.60;;
71769;SDS011;66386;52.122;5.420;2023-08-24T04:11:42;10.07;;;6.60;;
71769;SDS011;66386;52.122;5.420;2023-08-24T04:14:08;11.02;;;6.80;;
71769;SDS011;66386;52.122;5.420;2023-08-24T04:16:35;5.90;;;5.30;;
71769;SDS011;66386;52.122;5.420;2023-08-24T04:19:02;10.20;;;6.70;;
71769;SDS011;66386;52.122;5.420;2023-08-24T04:21:28;10.10;;;6.18;;
71769;SDS011;66386;52.122;5.420;2023-08-24T04:23:55;7.50;;;5.35;;
71769;SDS011;66386;52.122;5.420;2023-08-24T04:26:22;8.60;;;5.90;;
71769;SDS011;66386;52.122;5.420;2023-08-24T04:28:48;8.23;;;6.17;;
71769;SDS011;66386;52.122;5.420;2023-08-24T04:31:16;7.63;;;5.75;;
71769;SDS011;66386;52.122;5.420;2023-08-24T04:33:42;7.07;;;5.80;;
71769;SDS011;66386;52.122;5.420;2023-08-24T04:36:09;10.50;;;5.75;;
71769;SDS011;66386;52.122;5.420;2023-08-24T04:38:35;11.80;;;6.05;;
71769;SDS011;66386;52.122;5.420;2023-08-24T04:41:02;13.53;;;6.40;;
71769;SDS011;66386;52.122;5.420;2023-08-24T04:43:33;10.38;;;6.10;;
71769;SDS011;66386;52.122;5.420;2023-08-24T04:46:00;11.20;;;6.22;;
71769;SDS011;66386;52.122;5.420;2023-08-24T04:48:26;7.97;;;6.50;;
71769;SDS011;66386;52.122;5.420;2023-08-24T04:50:53;9.02;;;5.78;;
71769;SDS011;66386;52.122;5.420;2023-08-24T04:53:22;8.43;;;5.70;;
71769;SDS011;66386;52.122;5.420;2023-08-24T04:55:49;7.53;;;6.20;;
71769;SDS011;66386;52.122;5.420;2023-08-24T04:58:15;11.68;;;6.32;;
71769;SDS011;66386;52.122;5.420;2023-08-24T05:00:42;9.18;;;5.85;;
71769;SDS011;66386;52.122;5.420;2023-08-24T05:03:09;13.48;;;6.43;;
71769;SDS011;66386;52.122;5.420;2023-08-24T05:05:36;7.53;;;6.07;;
71769;SDS011;66386;52.122;5.420;2023-08-24T05:08:04;8.07;;;5.32;;
71769;SDS011;66386;52.122;5.420;2023-08-24T05:10:39;8.35;;;5.70;;
71769;SDS011;66386;52.122;5.420;2023-08-24T05:13:06;7.68;;;5.47;;
71769;SDS011;66386;52.122;5.420;2023-08-24T05:15:33;9.55;;;6.05;;
71769;SDS011;66386;52.122;5.420;2023-08-24T05:17:59;11.57;;;6.03;;
71769;SDS011;66386;52.122;5.420;2023-08-24T05:20:26;7.22;;;5.43;;
71769;SDS011;66386;52.122;5.420;2023-08-24T05:22:53;9.23;;;5.97;;
71769;SDS011;66386;52.122;5.420;2023-08-24T05:25:24;9.75;;;5.80;;
71769;SDS011;66386;52.122;5.420;2023-08-24T05:27:50;7.50;;;5.28;;
71769;SDS011;66386;52.122;5.420;2023-08-24T05:30:17;9.90;;;6.20;;
71769;SDS011;66386;52.122;5.420;2023-08-24T05:32:45;10.77;;;6.03;;
71769;SDS011;66386;52.122;5.420;2023-08-24T05:35:12;8.10;;;6.50;;
71769;SDS011;66386;52.122;5.420;2023-08-24T05:37:38;11.07;;;6.32;;
71769;SDS011;66386;52.122;5.420;2023-08-24T05:40:05;8.43;;;6.18;;
71769;SDS011;66386;52.122;5.420;2023-08-24T05:42:32;8.93;;;5.80;;
71769;SDS011;66386;52.122;5.420;2023-08-24T05:44:59;10.35;;;6.78;;
71769;SDS011;66386;52.122;5.420;2023-08-24T05:47:25;11.38;;;6.40;;
71769;SDS011;66386;52.122;5.420;2023-08-24T05:49:52;9.35;;;5.70;;
71769;SDS011;66386;52.122;5.420;2023-08-24T05:52:18;8.15;;;5.53;;
71769;SDS011;66386;52.122;5.420;2023-08-24T05:54:45;9.83;;;5.73;;
71769;SDS011;66386;52.122;5.420;2023-08-24T05:57:11;6.22;;;5.63;;
71769;SDS011;66386;52.122;5.420;2023-08-24T05:59:38;6.90;;;5.68;;
71769;SDS011;66386;52.122;5.420;2023-08-24T06:02:05;9.63;;;6.13;;
71769;SDS011;66386;52.122;5.420;2023-08-24T06:04:31;7.78;;;6.18;;
71769;SDS011;66386;52.122;5.420;2023-08-24T06:06:58;7.57;;;5.20;;
71769;SDS011;66386;52.122;5.420;2023-08-24T06:09:24;11.63;;;5.68;;
71769;SDS011;66386;52.122;5.420;2023-08-24T06:11:51;7.55;;;6.20;;
71769;SDS011;66386;52.122;5.420;2023-08-24T06:14:17;12.52;;;6.13;;
71769;SDS011;66386;52.122;5.420;2023-08-24T06:16:44;8.27;;;6.03;;
71769;SDS011;66386;52.122;5.420;2023-08-24T06:19:10;8.23;;;5.90;;
71769;SDS011;66386;52.122;5.420;2023-08-24T06:21:36;6.63;;;5.93;;
71769;SDS011;66386;52.122;5.420;2023-08-24T06:24:03;14.07;;;6.43;;
71769;SDS011;66386;52.122;5.420;2023-08-24T06:26:30;8.30;;;5.90;;
71769;SDS011;66386;52.122;5.420;2023-08-24T06:28:57;12.07;;;6.78;;
71769;SDS011;66386;52.122;5.420;2023-08-24T06:31:23;7.27;;;5.93;;
71769;SDS011;66386;52.122;5.420;2023-08-24T06:33:50;7.47;;;6.20;;
71769;SDS011;66386;52.122;5.420;2023-08-24T06:36:16;10.77;;;6.22;;
71769;SDS011;66386;52.122;5.420;2023-08-24T06:38:43;9.20;;;6.57;;
71769;SDS011;66386;52.122;5.420;2023-08-24T06:41:09;8.65;;;6.53;;
71769;SDS011;66386;52.122;5.420;2023-08-24T06:43:38;9.63;;;6.03;;
71769;SDS011;66386;52.122;5.420;2023-08-24T06:46:05;9.60;;;5.88;;
71769;SDS011;66386;52.122;5.420;2023-08-24T06:48:34;11.07;;;7.32;;
71769;SDS011;66386;52.122;5.420;2023-08-24T06:51:01;8.35;;;5.80;;
71769;SDS011;66386;52.122;5.420;2023-08-24T06:53:28;9.52;;;6.65;;
71769;SDS011;66386;52.122;5.420;2023-08-24T06:55:55;12.67;;;7.10;;
71769;SDS011;66386;52.122;5.420;2023-08-24T06:58:22;11.93;;;6.90;;
71769;SDS011;66386;52.122;5.420;2023-08-24T07:00:48;11.25;;;6.97;;
71769;SDS011;66386;52.122;5.420;2023-08-24T07:03:18;13.73;;;7.10;;
71769;SDS011;66386;52.122;5.420;2023-08-24T07:05:45;8.50;;;6.85;;
71769;SDS011;66386;52.122;5.420;2023-08-24T07:08:12;11.77;;;6.93;;
71769;SDS011;66386;52.122;5.420;2023-08-24T07:10:40;11.82;;;7.13;;
71769;SDS011;66386;52.122;5.420;2023-08-24T07:13:07;7.35;;;6.68;;
71769;SDS011;66386;52.122;5.420;2023-08-24T07:15:34;7.40;;;6.70;;
71769;SDS011;66386;52.122;5.420;2023-08-24T07:18:01;8.00;;;7.20;;
71769;SDS011;66386;52.122;5.420;2023-08-24T07:20:28;9.57;;;7.13;;
71769;SDS011;66386;52.122;5.420;2023-08-24T07:22:55;8.45;;;6.97;;
71769;SDS011;66386;52.122;5.420;2023-08-24T07:25:23;9.32;;;7.30;;
71769;SDS011;66386;52.122;5.420;2023-08-24T07:27:50;8.68;;;7.35;;
71769;SDS011;66386;52.122;5.420;2023-08-24T07:30:17;9.95;;;7.60;;
71769;SDS011;66386;52.122;5.420;2023-08-24T07:32:58;8.00;;;7.20;;
71769;SDS011;66386;52.122;5.420;2023-08-24T07:35:25;9.75;;;7.18;;
71769;SDS011;66386;52.122;5.420;2023-08-24T07:37:52;9.00;;;7.45;;
71769;SDS011;66386;52.122;5.420;2023-08-24T07:40:19;11.77;;;8.30;;
71769;SDS011;66386;52.122;5.420;2023-08-24T07:42:47;9.80;;;8.30;;
71769;SDS011;66386;52.122;5.420;2023-08-24T07:45:17;8.93;;;8.20;;
71769;SDS011;66386;52.122;5.420;2023-08-24T07:47:43;9.32;;;8.25;;
71769;SDS011;66386;52.122;5.420;2023-08-24T07:50:10;8.38;;;7.70;;
71769;SDS011;66386;52.122;5.420;2023-08-24T07:52:41;10.48;;;8.30;;
71769;SDS011;66386;52.122;5.420;2023-08-24T07:55:30;11.40;;;9.05;;
71769;SDS011;66386;52.122;5.420;2023-08-24T07:57:57;11.03;;;8.20;;
71769;SDS011;66386;52.122;5.420;2023-08-24T08:00:23;10.30;;;8.90;;
71769;SDS011;66386;52.122;5.420;2023-08-24T08:02:51;9.68;;;8.65;;
71769;SDS011;66386;52.122;5.420;2023-08-24T08:05:21;9.43;;;8.43;;
71769;SDS011;66386;52.122;5.420;2023-08-24T08:07:49;9.15;;;8.25;;
71769;SDS011;66386;52.122;5.420;2023-08-24T08:10:16;8.57;;;7.77;;
71769;SDS011;66386;52.122;5.420;2023-08-24T08:12:45;9.85;;;8.02;;
71769;SDS011;66386;52.122;5.420;2023-08-24T08:15:11;8.45;;;7.63;;
71769;SDS011;66386;52.122;5.420;2023-08-24T08:17:38;8.80;;;8.00;;
71769;SDS011;66386;52.122;5.420;2023-08-24T08:20:05;8.57;;;7.78;;
71769;SDS011;66386;52.122;5.420;2023-08-24T08:22:32;9.60;;;8.00;;
71769;SDS011;66386;52.122;5.420;2023-08-24T08:25:05;10.18;;;8.32;;
71769;SDS011;66386;52.122;5.420;2023-08-24T08:27:32;9.13;;;8.20;;
71769;SDS011;66386;52.122;5.420;2023-08-24T08:29:59;10.20;;;8.43;;
71769;SDS011;66386;52.122;5.420;2023-08-24T08:32:26;10.93;;;8.18;;
71769;SDS011;66386;52.122;5.420;2023-08-24T08:34:54;9.17;;;7.97;;
71769;SDS011;66386;52.122;5.420;2023-08-24T08:37:23;9.73;;;7.93;;
71769;SDS011;66386;52.122;5.420;2023-08-24T08:39:50;10.65;;;8.35;;
71769;SDS011;66386;52.122;5.420;2023-08-24T08:42:17;9.32;;;8.43;;
71769;SDS011;66386;52.122;5.420;2023-08-24T08:44:45;10.50;;;8.98;;
71769;SDS011;66386;52.122;5.420;2023-08-24T08:47:12;10.20;;;8.50;;
71769;SDS011;66386;52.122;5.420;2023-08-24T08:49:42;13.52;;;8.77;;
71769;SDS011;66386;52.122;5.420;2023-08-24T08:52:09;10.15;;;8.23;;
71769;SDS011;66386;52.122;5.420;2023-08-24T08:54:36;11.10;;;8.82;;
71769;SDS011;66386;52.122;5.420;2023-08-24T08:57:03;12.88;;;8.60;;
71769;SDS011;66386;52.122;5.420;2023-08-24T08:59:30;12.87;;;8.30;;
71769;SDS011;66386;52.122;5.420;2023-08-24T09:01:57;12.65;;;9.20;;
71769;SDS011;66386;52.122;5.420;2023-08-24T09:04:24;11.27;;;8.70;;
71769;SDS011;66386;52.122;5.420;2023-08-24T09:06:51;9.43;;;8.05;;
71769;SDS011;66386;52.122;5.420;2023-08-24T09:09:18;9.15;;;8.25;;
71769;SDS011;66386;52.122;5.420;2023-08-24T09:11:44;8.53;;;7.67;;
71769;SDS011;66386;52.122;5.420;2023-08-24T09:14:13;8.82;;;8.02;;
71769;SDS011;66386;52.122;5.420;2023-08-24T09:16:41;13.57;;;8.52;;
71769;SDS011;66386;52.122;5.420;2023-08-24T09:19:10;10.27;;;7.53;;
71769;SDS011;66386;52.122;5.420;2023-08-24T09:21:37;8.43;;;7.63;;
71769;SDS011;66386;52.122;5.420;2023-08-24T09:24:06;8.30;;;7.50;;
71769;SDS011;66386;52.122;5.420;2023-08-24T09:26:34;8.10;;;7.38;;
71769;SDS011;66386;52.122;5.420;2023-08-24T09:29:10;7.95;;;7.20;;
71769;SDS011;66386;52.122;5.420;2023-08-24T09:31:41;9.18;;;7.13;;
71769;SDS011;66386;52.122;5.420;2023-08-24T09:34:10;8.02;;;7.22;;
71769;SDS011;66386;52.122;5.420;2023-08-24T09:36:38;9.33;;;7.23;;
71769;SDS011;66386;52.122;5.420;2023-08-24T09:39:07;7.43;;;6.75;;
71769;SDS011;66386;52.122;5.420;2023-08-24T09:41:38;11.02;;;8.23;;
71769;SDS011;66386;52.122;5.420;2023-08-24T09:44:06;9.07;;;7.90;;
71769;SDS011;66386;52.122;5.420;2023-08-24T09:46:34;9.50;;;7.25;;
71769;SDS011;66386;52.122;5.420;2023-08-24T09:49:03;9.93;;;7.13;;
71769;SDS011;66386;52.122;5.420;2023-08-24T09:51:32;7.90;;;7.05;;
71769;SDS011;66386;52.122;5.420;2023-08-24T09:54:00;9.90;;;7.25;;
71769;SDS011;66386;52.122;5.420;2023-08-24T09:56:33;8.10;;;6.47;;
71769;SDS011;66386;52.122;5.420;2023-08-24T09:59:03;8.07;;;7.25;;
71769;SDS011;66386;52.122;5.420;2023-08-24T10:01:49;10.93;;;8.83;;
71769;SDS011;66386;52.122;5.420;2023-08-24T10:04:23;8.93;;;7.18;;
71769;SDS011;66386;52.122;5.420;2023-08-24T10:07:05;8.25;;;7.28;;
71769;SDS011;66386;52.122;5.420;2023-08-24T10:10:19;9.70;;;7.13;;
71769;SDS011;66386;52.122;5.420;2023-08-24T10:12:26;10.90;;;7.07;;
71769;SDS011;66386;52.122;5.420;2023-08-24T10:17:33;7.22;;;6.53;;
71769;SDS011;66386;52.122;5.420;2023-08-24T10:20:03;10.10;;;6.80;;
71769;SDS011;66386;52.122;5.420;2023-08-24T10:22:34;9.00;;;7.22;;
71769;SDS011;66386;52.122;5.420;2023-08-24T10:25:04;9.05;;;7.75;;
71769;SDS011;66386;52.122;5.420;2023-08-24T10:27:33;10.93;;;6.60;;
71769;SDS011;66386;52.122;5.420;2023-08-24T10:30:00;12.88;;;6.78;;
71769;SDS011;66386;52.122;5.420;2023-08-24T10:32:27;11.90;;;7.32;;
71769;SDS011;66386;52.122;5.420;2023-08-24T10:34:54;10.23;;;6.70;;
71769;SDS011;66386;52.122;5.420;2023-08-24T10:37:24;10.45;;;7.50;;
71769;SDS011;66386;52.122;5.420;2023-08-24T10:39:53;7.40;;;6.70;;
71769;SDS011;66386;52.122;5.420;2023-08-24T10:42:20;10.02;;;7.13;;
71769;SDS011;66386;52.122;5.420;2023-08-24T10:44:49;14.25;;;8.43;;
71769;SDS011;66386;52.122;5.420;2023-08-24T10:47:23;14.77;;;8.02;;
71769;SDS011;66386;52.122;5.420;2023-08-24T10:52:24;8.87;;;7.93;;
71769;SDS011;66386;52.122;5.420;2023-08-24T10:54:52;10.35;;;9.00;;
71769;SDS011;66386;52.122;5.420;2023-08-24T10:57:26;12.73;;;9.73;;
71769;SDS011;66386;52.122;5.420;2023-08-24T11:00:10;11.07;;;9.00;;
71769;SDS011;66386;52.122;5.420;2023-08-24T11:02:42;10.88;;;8.82;;
71769;SDS011;66386;52.122;5.420;2023-08-24T11:05:15;13.07;;;9.50;;
71769;SDS011;66386;52.122;5.420;2023-08-24T11:07:52;11.15;;;9.65;;
71769;SDS011;66386;52.122;5.420;2023-08-24T11:10:20;12.18;;;9.77;;
71769;SDS011;66386;52.122;5.420;2023-08-24T11:15:33;13.73;;;10.18;;
71769;SDS011;66386;52.122;5.420;2023-08-24T11:18:12;13.83;;;9.67;;
71769;SDS011;66386;52.122;5.420;2023-08-24T11:20:45;11.80;;;10.23;;
71769;SDS011;66386;52.122;5.420;2023-08-24T11:23:14;12.32;;;10.55;;
71769;SDS011;66386;52.122;5.420;2023-08-24T11:25:42;15.10;;;10.30;;
71769;SDS011;66386;52.122;5.420;2023-08-24T11:28:08;11.48;;;10.38;;
71769;SDS011;66386;52.122;5.420;2023-08-24T11:30:35;13.93;;;11.70;;
71769;SDS011;66386;52.122;5.420;2023-08-24T11:33:02;15.35;;;10.80;;
71769;SDS011;66386;52.122;5.420;2023-08-24T11:35:30;15.93;;;11.63;;
71769;SDS011;66386;52.122;5.420;2023-08-24T11:38:02;14.02;;;10.20;;
71769;SDS011;66386;52.122;5.420;2023-08-24T11:40:30;12.82;;;10.25;;
71769;SDS011;66386;52.122;5.420;2023-08-24T11:43:10;15.35;;;12.15;;
71769;SDS011;66386;52.122;5.420;2023-08-24T11:45:37;14.52;;;10.93;;
71769;SDS011;66386;52.122;5.420;2023-08-24T11:48:05;11.63;;;10.43;;
71769;SDS011;66386;52.122;5.420;2023-08-24T11:50:32;16.02;;;11.40;;
71769;SDS011;66386;52.122;5.420;2023-08-24T11:53:02;14.38;;;11.93;;
71769;SDS011;66386;52.122;5.420;2023-08-24T11:55:32;14.25;;;10.85;;
71769;SDS011;66386;52.122;5.420;2023-08-24T11:57:59;14.75;;;10.65;;
71769;SDS011;66386;52.122;5.420;2023-08-24T12:00:26;12.70;;;10.30;;
71769;SDS011;66386;52.122;5.420;2023-08-24T12:02:53;11.40;;;10.15;;
71769;SDS011;66386;52.122;5.420;2023-08-24T12:05:25;14.13;;;11.48;;
71769;SDS011;66386;52.122;5.420;2023-08-24T12:07:53;12.60;;;10.45;;
71769;SDS011;66386;52.122;5.420;2023-08-24T12:10:20;11.98;;;10.77;;
71769;SDS011;66386;52.122;5.420;2023-08-24T12:12:47;11.57;;;9.73;;
71769;SDS011;66386;52.122;5.420;2023-08-24T12:15:18;12.68;;;10.68;;
71769;SDS011;66386;52.122;5.420;2023-08-24T12:17:48;12.93;;;10.15;;
71769;SDS011;66386;52.122;5.420;2023-08-24T12:20:19;14.48;;;11.25;;
71769;SDS011;66386;52.122;5.420;2023-08-24T12:22:50;15.70;;;10.98;;
71769;SDS011;66386;52.122;5.420;2023-08-24T12:25:21;12.83;;;10.97;;
71769;SDS011;66386;52.122;5.420;2023-08-24T12:27:49;12.27;;;10.98;;
71769;SDS011;66386;52.122;5.420;2023-08-24T12:30:17;15.40;;;11.32;;
71769;SDS011;66386;52.122;5.420;2023-08-24T12:32:44;12.02;;;10.73;;
71769;SDS011;66386;52.122;5.420;2023-08-24T12:35:14;13.23;;;11.68;;
71769;SDS011;66386;52.122;5.420;2023-08-24T12:37:41;15.23;;;11.23;;
71769;SDS011;66386;52.122;5.420;2023-08-24T12:40:07;17.05;;;11.45;;
71769;SDS011;66386;52.122;5.420;2023-08-24T12:42:34;14.48;;;11.45;;
71769;SDS011;66386;52.122;5.420;2023-08-24T12:45:02;15.10;;;11.40;;
71769;SDS011;66386;52.122;5.420;2023-08-24T12:47:30;14.57;;;11.38;;
71769;SDS011;66386;52.122;5.420;2023-08-24T12:49:57;16.53;;;11.43;;
71769;SDS011;66386;52.122;5.420;2023-08-24T12:52:24;16.30;;;11.45;;
71769;SDS011;66386;52.122;5.420;2023-08-24T12:54:51;13.70;;;11.27;;
71769;SDS011;66386;52.122;5.420;2023-08-24T12:57:17;13.70;;;10.85;;
71769;SDS011;66386;52.122;5.420;2023-08-24T12:59:44;14.20;;;10.88;;
71769;SDS011;66386;52.122;5.420;2023-08-24T13:02:12;15.33;;;11.10;;
71769;SDS011;66386;52.122;5.420;2023-08-24T13:04:54;16.17;;;11.05;;
71769;SDS011;66386;52.122;5.420;2023-08-24T13:07:21;13.70;;;11.25;;
71769;SDS011;66386;52.122;5.420;2023-08-24T13:09:48;12.05;;;10.70;;
71769;SDS011;66386;52.122;5.420;2023-08-24T13:12:15;16.65;;;10.52;;
71769;SDS011;66386;52.122;5.420;2023-08-24T13:14:42;14.67;;;11.10;;
71769;SDS011;66386;52.122;5.420;2023-08-24T13:17:08;13.82;;;11.00;;
71769;SDS011;66386;52.122;5.420;2023-08-24T13:19:35;14.55;;;11.63;;
71769;SDS011;66386;52.122;5.420;2023-08-24T13:22:03;11.48;;;10.27;;
71769;SDS011;66386;52.122;5.420;2023-08-24T13:24:30;13.05;;;10.30;;
71769;SDS011;66386;52.122;5.420;2023-08-24T13:26:56;13.70;;;10.80;;
71769;SDS011;66386;52.122;5.420;2023-08-24T13:29:23;14.75;;;9.68;;
71769;SDS011;66386;52.122;5.420;2023-08-24T13:31:49;13.38;;;9.98;;
71769;SDS011;66386;52.122;5.420;2023-08-24T13:34:16;14.27;;;10.90;;
71769;SDS011;66386;52.122;5.420;2023-08-24T13:36:42;13.02;;;11.00;;
71769;SDS011;66386;52.122;5.420;2023-08-24T13:39:09;12.50;;;11.20;;
71769;SDS011;66386;52.122;5.420;2023-08-24T13:41:37;11.65;;;10.07;;
71769;SDS011;66386;52.122;5.420;2023-08-24T13:44:03;16.90;;;10.48;;
71769;SDS011;66386;52.122;5.420;2023-08-24T13:46:30;14.85;;;10.48;;
71769;SDS011;66386;52.122;5.420;2023-08-24T13:48:57;12.20;;;10.77;;
71769;SDS011;66386;52.122;5.420;2023-08-24T13:51:23;11.63;;;10.43;;
71769;SDS011;66386;52.122;5.420;2023-08-24T13:53:49;13.63;;;12.00;;
71769;SDS011;66386;52.122;5.420;2023-08-24T13:56:16;13.35;;;11.95;;
71769;SDS011;66386;52.122;5.420;2023-08-24T13:58:43;17.33;;;12.32;;
71769;SDS011;66386;52.122;5.420;2023-08-24T14:01:10;13.50;;;12.13;;
71769;SDS011;66386;52.122;5.420;2023-08-24T14:03:37;16.63;;;12.97;;
71769;SDS011;66386;52.122;5.420;2023-08-24T14:06:04;16.15;;;11.55;;
71769;SDS011;66386;52.122;5.420;2023-08-24T14:08:31;25.02;;;16.10;;
71769;SDS011;66386;52.122;5.420;2023-08-24T14:10:58;52.88;;;21.20;;
71769;SDS011;66386;52.122;5.420;2023-08-24T14:13:24;21.63;;;13.88;;
71769;SDS011;66386;52.122;5.420;2023-08-24T14:15:51;15.30;;;13.70;;
71769;SDS011;66386;52.122;5.420;2023-08-24T14:18:18;14.45;;;13.00;;
71769;SDS011;66386;52.122;5.420;2023-08-24T14:20:46;15.23;;;13.25;;
71769;SDS011;66386;52.122;5.420;2023-08-24T14:23:12;21.65;;;15.27;;
71769;SDS011;66386;52.122;5.420;2023-08-24T14:25:39;16.35;;;14.85;;
71769;SDS011;66386;52.122;5.420;2023-08-24T14:28:06;18.57;;;15.67;;
71769;SDS011;66386;52.122;5.420;2023-08-24T14:30:36;16.38;;;14.68;;
71769;SDS011;66386;52.122;5.420;2023-08-24T14:33:02;17.05;;;15.15;;
71769;SDS011;66386;52.122;5.420;2023-08-24T14:35:29;17.05;;;13.98;;
71769;SDS011;66386;52.122;5.420;2023-08-24T14:37:58;19.67;;;14.00;;
71769;SDS011;66386;52.122;5.420;2023-08-24T14:40:25;19.10;;;14.83;;
71769;SDS011;66386;52.122;5.420;2023-08-24T14:42:51;16.23;;;14.13;;
71769;SDS011;66386;52.122;5.420;2023-08-24T14:45:21;17.35;;;14.35;;
71769;SDS011;66386;52.122;5.420;2023-08-24T14:47:47;19.27;;;14.10;;
71769;SDS011;66386;52.122;5.420;2023-08-24T14:50:14;15.35;;;13.40;;
71769;SDS011;66386;52.122;5.420;2023-08-24T14:52:40;15.37;;;13.00;;